Time;durP1;ratioP1;P1;durP2;ratioP2;P2;SDS_P1;SDS_P2;PMS_P1;PMS_P2;Temp;Humidity;BMP_temperature;BMP_pressure;BME280_temperature;BME280_humidity;BME280_pressure;Samples;Min_cycle;Max_cycle;Signal;HPM_P1;HPM_P2
2022/08/01 00:00:12;;;;;;;2.50;2.30;;;20.90;59.60;;;;;;5053445;28;20209;-87
2022/08/01 00:02:41;;;;;;;3.70;2.33;;;20.90;58.40;;;;;;5041943;28;20243;-87
2022/08/01 00:05:11;;;;;;;2.60;2.40;;;20.90;57.60;;;;;;5045323;28;20202;-88
2022/08/01 00:07:39;;;;;;;4.50;2.28;;;20.90;56.70;;;;;;5039264;28;20217;-87
2022/08/01 00:10:07;;;;;;;3.22;2.22;;;20.80;56.70;;;;;;5048363;28;20213;-87
2022/08/01 00:12:34;;;;;;;3.10;2.30;;;20.90;56.70;;;;;;5038638;28;20219;-87
2022/08/01 00:15:04;;;;;;;3.05;2.50;;;20.90;57.90;;;;;;5036805;28;20198;-87
2022/08/01 00:17:30;;;;;;;3.28;2.30;;;20.80;57.00;;;;;;5041253;28;20302;-88
2022/08/01 00:19:57;;;;;;;2.65;2.45;;;20.80;56.70;;;;;;5042583;28;20285;-87
2022/08/01 00:22:24;;;;;;;3.80;2.47;;;20.80;56.60;;;;;;5045360;28;20261;-88
2022/08/01 00:24:51;;;;;;;3.20;2.40;;;20.80;56.60;;;;;;5052222;28;20277;-88
2022/08/01 00:27:22;;;;;;;4.10;2.30;;;20.90;56.70;;;;;;5055822;28;20226;-88
2022/08/01 00:29:49;;;;;;;3.50;2.60;;;20.80;56.60;;;;;;5060207;28;20206;-87
2022/08/01 00:32:18;;;;;;;2.55;2.35;;;20.90;56.70;;;;;;5046309;28;20276;-87
2022/08/01 00:34:44;;;;;;;3.25;2.50;;;20.90;56.70;;;;;;5048385;28;20211;-88
2022/08/01 00:37:11;;;;;;;2.70;2.50;;;20.80;57.80;;;;;;5049621;28;20592;-87
2022/08/01 00:39:38;;;;;;;3.30;2.80;;;20.90;56.70;;;;;;5040985;28;20209;-87
2022/08/01 00:42:08;;;;;;;3.10;1.95;;;20.80;56.60;;;;;;5045899;28;20206;-87
2022/08/01 00:44:35;;;;;;;4.93;2.42;;;20.80;56.70;;;;;;5046473;28;20215;-88
2022/08/01 00:47:03;;;;;;;3.47;2.40;;;20.70;57.40;;;;;;5050106;28;20237;-88
2022/08/01 00:49:31;;;;;;;2.75;2.45;;;20.60;57.30;;;;;;5039050;28;20219;-88
2022/08/01 00:52:11;;;;;;;2.63;2.42;;;20.70;56.50;;;;;;5036635;28;20206;-87
2022/08/01 00:54:38;;;;;;;3.40;2.30;;;20.70;56.50;;;;;;5043539;28;20245;-87
2022/08/01 00:57:06;;;;;;;3.33;2.10;;;20.60;56.40;;;;;;5038191;28;20214;-88
2022/08/01 00:59:34;;;;;;;3.92;2.35;;;20.50;56.30;;;;;;5037985;28;20222;-88
2022/08/01 01:02:04;;;;;;;2.90;2.40;;;20.50;57.40;;;;;;5036755;28;20207;-87
2022/08/01 01:04:36;;;;;;;4.85;2.50;;;20.50;56.30;;;;;;5033080;28;20290;-87
2022/08/01 01:07:09;;;;;;;3.28;2.20;;;20.50;56.30;;;;;;5046763;28;20297;-87
2022/08/01 01:09:43;;;;;;;2.40;2.20;;;20.50;56.30;;;;;;5042145;28;20203;-88
2022/08/01 01:12:23;;;;;;;4.60;2.40;;;20.50;56.30;;;;;;5041843;28;20210;-87
2022/08/01 01:14:57;;;;;;;2.65;2.17;;;20.50;56.30;;;;;;5044026;28;20662;-88
2022/08/01 01:17:29;;;;;;;2.70;2.35;;;20.50;56.30;;;;;;5046526;28;20214;-87
2022/08/01 01:20:01;;;;;;;3.22;2.10;;;20.50;54.80;;;;;;5044967;28;20217;-87
2022/08/01 01:22:48;;;;;;;4.30;2.30;;;20.60;55.10;;;;;;5044603;28;20229;-88
2022/08/01 01:25:37;;;;;;;2.42;2.17;;;20.50;54.90;;;;;;5045815;28;20221;-87
2022/08/01 01:28:11;;;;;;;4.25;2.30;;;20.50;57.50;;;;;;5043426;28;20230;-87
2022/08/01 01:30:42;;;;;;;3.83;2.17;;;20.50;56.30;;;;;;5044306;28;20213;-87
2022/08/01 01:33:13;;;;;;;5.78;2.42;;;20.50;56.30;;;;;;5044171;28;20218;-87
2022/08/01 01:35:47;;;;;;;3.85;2.40;;;20.40;56.30;;;;;;5042204;28;20218;-88
2022/08/01 01:38:19;;;;;;;3.90;2.33;;;20.40;57.40;;;;;;5045491;28;20546;-87
2022/08/01 01:41:00;;;;;;;2.92;2.70;;;20.30;56.10;;;;;;5046070;28;20215;-88
2022/08/01 01:43:30;;;;;;;5.05;2.30;;;20.30;56.10;;;;;;5047006;28;20228;-87
2022/08/01 01:45:58;;;;;;;3.55;2.17;;;20.40;54.60;;;;;;5047484;28;20207;-88
2022/08/01 01:48:27;;;;;;;3.15;2.22;;;20.40;56.20;;;;;;5044261;28;20212;-87
2022/08/01 01:50:59;;;;;;;2.67;2.15;;;20.30;56.10;;;;;;5043705;28;20209;-88
2022/08/01 01:53:29;;;;;;;2.90;2.58;;;20.30;56.10;;;;;;5042948;28;20293;-87
2022/08/01 01:55:59;;;;;;;2.67;2.47;;;20.30;56.10;;;;;;5044951;28;20206;-87
2022/08/01 01:58:32;;;;;;;4.15;2.20;;;20.20;56.10;;;;;;5044985;28;20199;-87
2022/08/01 02:01:03;;;;;;;2.63;2.42;;;20.20;56.10;;;;;;5049487;28;20237;-87
2022/08/01 02:03:31;;;;;;;2.63;2.42;;;20.20;56.10;;;;;;5050442;28;20769;-87
2022/08/01 02:06:00;;;;;;;2.60;2.40;;;20.30;56.10;;;;;;5049572;28;20253;-87
2022/08/01 02:08:27;;;;;;;4.82;2.25;;;20.30;56.10;;;;;;5048904;28;20206;-87
2022/08/01 02:14:02;;;;;;;3.85;2.38;;;20.40;56.20;;;;;;5044325;28;20217;-87
2022/08/01 02:16:36;;;;;;;4.43;2.55;;;20.50;56.30;;;;;;5037559;28;20213;-88
2022/08/01 02:19:03;;;;;;;3.58;2.47;;;20.40;56.20;;;;;;5035534;28;20725;-88
2022/08/01 02:21:36;;;;;;;2.42;2.22;;;20.40;57.50;;;;;;5047606;28;20302;-87
2022/08/01 02:24:10;;;;;;;3.80;2.13;;;20.40;56.20;;;;;;5039602;28;20232;-88
2022/08/01 02:26:51;;;;;;;2.40;2.15;;;20.40;55.90;;;;;;5044156;28;20214;-87
2022/08/01 02:29:23;;;;;;;2.13;1.98;;;20.40;55.90;;;;;;5044508;28;20199;-88
2022/08/01 02:31:55;;;;;;;2.40;2.10;;;20.40;54.20;;;;;;5041495;28;20223;-87
2022/08/01 02:34:23;;;;;;;2.35;2.15;;;20.30;55.90;;;;;;5044974;28;20237;-87
2022/08/01 02:36:57;;;;;;;2.80;2.15;;;20.30;54.70;;;;;;5040482;28;20223;-88
2022/08/01 02:39:27;;;;;;;3.42;2.38;;;20.20;55.10;;;;;;5043530;28;20289;-87
2022/08/01 02:42:05;;;;;;;2.40;2.20;;;20.20;53.90;;;;;;5042101;28;20262;-88
2022/08/01 02:44:38;;;;;;;2.95;2.30;;;20.30;52.80;;;;;;5041782;28;20226;-88
2022/08/01 02:47:13;;;;;;;3.75;2.30;;;20.20;54.40;;;;;;5031007;28;20207;-88
2022/08/01 02:49:45;;;;;;;2.72;2.17;;;20.30;52.10;;;;;;5043916;28;20210;-87
2022/08/01 02:52:15;;;;;;;3.60;2.33;;;20.30;52.50;;;;;;5045822;28;20289;-87
2022/08/01 02:54:44;;;;;;;3.75;2.30;;;20.20;54.50;;;;;;5039105;28;20203;-88
2022/08/01 02:57:11;;;;;;;2.70;2.40;;;20.20;53.20;;;;;;5044531;28;20210;-87
2022/08/01 02:59:39;;;;;;;3.45;2.35;;;20.10;56.00;;;;;;5038979;28;20203;-87
2022/08/01 03:02:07;;;;;;;6.72;2.60;;;20.10;56.00;;;;;;5037470;28;20207;-88
2022/08/01 03:04:38;;;;;;;2.30;2.10;;;20.10;56.00;;;;;;5043950;28;20225;-87
2022/08/01 03:07:08;;;;;;;3.05;2.38;;;20.00;55.90;;;;;;5046912;28;20210;-87
2022/08/01 03:09:38;;;;;;;3.38;2.42;;;19.90;55.80;;;;;;5035280;28;20298;-87
2022/08/01 03:12:20;;;;;;;2.92;2.47;;;19.90;55.80;;;;;;5039270;28;20199;-87
2022/08/01 03:14:50;;;;;;;2.42;2.22;;;19.90;55.80;;;;;;5032426;28;20211;-87
2022/08/01 03:17:18;;;;;;;2.50;2.30;;;19.90;54.50;;;;;;5043840;28;20659;-87
2022/08/01 03:19:47;;;;;;;2.90;2.33;;;19.90;55.80;;;;;;5040427;28;20202;-87
2022/08/01 03:22:15;;;;;;;2.75;2.40;;;19.90;55.80;;;;;;5040274;28;20207;-87
2022/08/01 03:24:54;;;;;;;2.97;2.10;;;19.90;55.80;;;;;;5047691;28;20239;-87
2022/08/01 03:27:24;;;;;;;3.65;2.33;;;19.90;55.80;;;;;;5043260;28;20214;-87
2022/08/01 03:29:52;;;;;;;3.10;2.33;;;19.90;55.80;;;;;;5043986;28;20203;-87
2022/08/01 03:32:20;;;;;;;4.32;2.40;;;19.90;55.80;;;;;;5036888;28;20227;-87
2022/08/01 03:35:00;;;;;;;3.45;2.50;;;19.90;55.90;;;;;;5046066;28;20210;-87
2022/08/01 03:37:30;;;;;;;2.67;2.40;;;19.90;55.80;;;;;;5040937;28;20563;-87
2022/08/01 03:40:16;;;;;;;2.67;2.47;;;19.90;55.90;;;;;;5042763;28;20233;-87
2022/08/01 03:42:48;;;;;;;2.53;2.33;;;19.80;55.70;;;;;;5042738;28;20206;-88
2022/08/01 03:45:23;;;;;;;5.00;2.45;;;19.90;55.80;;;;;;5041668;28;20221;-87
2022/08/01 03:47:56;;;;;;;3.28;2.17;;;19.80;55.80;;;;;;5046519;28;20209;-87
2022/08/01 03:50:26;;;;;;;2.67;2.38;;;19.80;54.70;;;;;;5036193;28;20279;-87
2022/08/01 03:53:02;;;;;;;3.22;2.47;;;19.80;54.00;;;;;;5040834;28;20237;-87
2022/08/01 03:55:33;;;;;;;3.75;2.17;;;19.90;53.50;;;;;;5042424;28;20201;-87
2022/08/01 03:58:06;;;;;;;8.32;2.40;;;19.80;53.00;;;;;;5036201;28;20203;-87
2022/08/01 04:00:34;;;;;;;2.80;2.45;;;19.80;53.60;;;;;;5044825;28;20226;-87
2022/08/01 04:03:01;;;;;;;3.03;2.70;;;19.80;54.40;;;;;;5039103;28;20210;-87
2022/08/01 04:05:31;;;;;;;2.95;2.35;;;19.80;55.40;;;;;;5037559;28;20665;-87
2022/08/01 04:07:59;;;;;;;4.18;2.38;;;19.80;55.70;;;;;;5044022;28;20906;-87
2022/08/01 04:10:26;;;;;;;3.85;2.50;;;19.80;52.70;;;;;;5037331;28;20204;-87
2022/08/01 04:12:59;;;;;;;4.55;2.30;;;19.80;53.20;;;;;;5042741;28;20209;-87
2022/08/01 04:15:25;;;;;;;3.70;2.88;;;19.80;54.40;;;;;;5038417;28;20210;-87
2022/08/01 04:17:53;;;;;;;2.65;2.33;;;19.80;53.80;;;;;;5036108;28;20206;-87
2022/08/01 04:20:21;;;;;;;7.72;2.50;;;19.80;54.80;;;;;;5032181;28;20218;-87
2022/08/01 04:22:49;;;;;;;2.60;2.40;;;19.80;55.70;;;;;;5041158;28;20199;-87
2022/08/01 04:25:23;;;;;;;3.50;2.65;;;19.80;55.60;;;;;;5037652;28;20223;-87
2022/08/01 04:28:16;;;;;;;6.53;2.58;;;19.80;54.10;;;;;;5040660;28;20270;-87
2022/08/01 04:30:46;;;;;;;2.65;2.45;;;19.80;54.40;;;;;;5036456;28;20206;-87
2022/08/01 04:33:17;;;;;;;3.85;2.33;;;19.80;55.70;;;;;;5035226;28;20236;-88
2022/08/01 04:35:46;;;;;;;2.67;2.40;;;19.80;55.70;;;;;;5040446;28;20214;-87
2022/08/01 04:38:18;;;;;;;3.17;2.40;;;19.80;55.20;;;;;;5033009;28;20210;-87
2022/08/01 04:43:31;;;;;;;3.92;2.55;;;19.80;55.70;;;;;;4995271;28;20241;-87
2022/08/01 04:45:59;;;;;;;2.63;2.40;;;19.80;55.20;;;;;;5035118;28;20210;-88
2022/08/01 04:48:27;;;;;;;4.22;2.38;;;19.80;54.00;;;;;;5046807;28;20270;-87
2022/08/01 04:50:54;;;;;;;3.65;2.55;;;19.80;54.50;;;;;;5037608;28;20290;-87
2022/08/01 04:53:23;;;;;;;3.08;2.42;;;19.80;55.70;;;;;;5038549;28;20205;-87
2022/08/01 04:55:50;;;;;;;5.28;2.55;;;19.90;55.00;;;;;;5038901;28;20281;-87
2022/08/01 04:58:17;;;;;;;2.55;2.35;;;19.90;53.60;;;;;;5043483;28;20273;-87
2022/08/01 05:00:44;;;;;;;4.28;2.60;;;20.00;56.00;;;;;;5040479;28;20210;-88
2022/08/01 05:03:11;;;;;;;3.53;2.83;;;20.10;56.10;;;;;;5041970;28;20225;-87
2022/08/01 05:05:38;;;;;;;5.65;2.40;;;20.10;56.00;;;;;;5044386;28;20225;-87
2022/08/01 05:08:05;;;;;;;3.47;2.83;;;20.20;53.40;;;;;;5043443;28;20203;-87
2022/08/01 05:10:34;;;;;;;5.30;2.80;;;20.30;53.30;;;;;;5048227;28;20206;-87
2022/08/01 05:13:06;;;;;;;4.15;2.60;;;20.40;52.30;;;;;;5044212;28;20210;-87
2022/08/01 05:15:33;;;;;;;3.28;2.47;;;20.50;49.20;;;;;;5043567;28;20601;-88
2022/08/01 05:17:59;;;;;;;2.80;2.42;;;20.60;50.60;;;;;;5048008;28;20546;-87
2022/08/01 05:20:26;;;;;;;5.90;2.70;;;20.70;49.40;;;;;;5045621;28;20274;-87
2022/08/01 05:22:53;;;;;;;2.90;2.20;;;20.70;50.80;;;;;;5052326;28;20218;-87
2022/08/01 05:25:20;;;;;;;3.47;2.53;;;20.70;49.10;;;;;;5044091;28;20226;-88
2022/08/01 05:27:54;;;;;;;3.75;2.67;;;20.80;48.40;;;;;;5045499;28;20683;-87
2022/08/01 05:30:21;;;;;;;4.20;2.55;;;20.80;48.60;;;;;;5047872;28;20199;-87
2022/08/01 05:32:48;;;;;;;2.70;2.50;;;20.90;49.50;;;;;;5047869;28;20585;-88
2022/08/01 05:35:17;;;;;;;5.47;2.65;;;20.90;49.30;;;;;;5049939;28;20729;-88
2022/08/01 05:37:44;;;;;;;4.78;2.70;;;20.90;50.50;;;;;;5049638;28;20661;-88
2022/08/01 05:40:12;;;;;;;2.70;2.50;;;21.00;49.20;;;;;;5046796;28;20210;-87
2022/08/01 05:42:38;;;;;;;4.22;2.70;;;21.20;44.40;;;;;;5049664;28;20212;-88
2022/08/01 05:45:08;;;;;;;4.22;2.60;;;21.30;45.00;;;;;;5045818;28;20233;-87
2022/08/01 05:47:35;;;;;;;2.97;2.67;;;21.40;45.40;;;;;;5046325;28;20217;-87
2022/08/01 05:50:01;;;;;;;2.40;2.20;;;21.60;42.20;;;;;;5039661;28;20680;-88
2022/08/01 05:52:30;;;;;;;2.90;2.45;;;21.60;43.80;;;;;;5043311;28;20206;-87
2022/08/01 05:55:06;;;;;;;5.32;2.55;;;21.50;45.10;;;;;;5040659;28;20206;-86
2022/08/01 05:57:35;;;;;;;2.97;2.60;;;21.40;44.30;;;;;;5036033;28;20210;-86
2022/08/01 06:00:28;;;;;;;5.13;2.83;;;21.40;43.70;;;;;;5041352;28;20202;-86
2022/08/01 06:02:55;;;;;;;3.67;2.67;;;21.80;42.30;;;;;;5044112;28;20198;-91
2022/08/01 06:05:21;;;;;;;4.03;2.70;;;21.90;40.00;;;;;;5042110;28;20225;-87
2022/08/01 06:07:48;;;;;;;3.17;2.45;;;22.00;39.20;;;;;;5040109;28;20229;-88
2022/08/01 06:10:15;;;;;;;3.65;2.53;;;21.90;39.30;;;;;;5049419;28;20288;-86
2022/08/01 06:12:42;;;;;;;4.85;2.80;;;21.80;39.50;;;;;;5038509;28;20211;-89
2022/08/01 06:15:23;;;;;;;3.75;2.60;;;21.70;41.10;;;;;;5043275;28;20198;-91
2022/08/01 06:17:51;;;;;;;4.38;2.83;;;21.70;41.50;;;;;;5042400;28;20592;-84
2022/08/01 06:20:18;;;;;;;6.43;2.90;;;21.60;41.40;;;;;;5042412;28;20201;-89
2022/08/01 06:22:47;;;;;;;2.72;2.40;;;21.50;42.60;;;;;;5029301;28;20213;-86
2022/08/01 06:25:17;;;;;;;3.10;2.78;;;21.60;42.10;;;;;;5039343;28;20226;-90
2022/08/01 06:27:43;;;;;;;5.03;3.10;;;21.60;42.30;;;;;;5037148;28;20209;-84
2022/08/01 06:30:11;;;;;;;4.53;3.00;;;21.60;42.80;;;;;;5036361;28;20210;-84
2022/08/01 06:32:38;;;;;;;3.47;2.65;;;21.60;42.10;;;;;;5034822;28;20237;-84
2022/08/01 06:35:07;;;;;;;2.80;2.60;;;21.70;41.80;;;;;;5038641;28;20206;-84
2022/08/01 06:37:34;;;;;;;7.88;3.08;;;21.70;42.00;;;;;;5037185;28;20221;-85
2022/08/01 06:40:02;;;;;;;4.60;2.67;;;21.70;42.00;;;;;;5038666;28;20208;-84
2022/08/01 06:42:31;;;;;;;4.93;3.08;;;21.90;40.50;;;;;;5038186;28;20602;-85
2022/08/01 06:44:58;;;;;;;5.93;3.10;;;21.90;40.40;;;;;;5033489;28;20258;-85
2022/08/01 06:47:25;;;;;;;3.45;3.15;;;21.90;41.20;;;;;;5031051;28;20209;-85
2022/08/01 06:49:53;;;;;;;3.90;2.80;;;22.00;41.10;;;;;;5036965;28;20203;-86
2022/08/01 06:52:21;;;;;;;3.30;3.00;;;22.10;39.50;;;;;;5030817;28;20203;-86
2022/08/01 06:54:48;;;;;;;7.82;3.28;;;22.10;40.40;;;;;;5028430;28;20202;-86
2022/08/01 06:57:15;;;;;;;3.97;2.90;;;22.10;40.00;;;;;;5036723;28;20565;-85
2022/08/01 06:59:42;;;;;;;3.38;2.70;;;22.10;41.10;;;;;;5039721;28;20662;-86
2022/08/01 07:02:09;;;;;;;4.20;2.65;;;22.10;41.40;;;;;;5034703;28;20749;-86
2022/08/01 07:04:36;;;;;;;5.15;3.08;;;22.20;40.70;;;;;;5033304;28;20230;-85
2022/08/01 07:07:05;;;;;;;4.15;3.00;;;22.30;38.20;;;;;;5036084;28;20203;-86
2022/08/01 07:09:34;;;;;;;7.47;2.88;;;22.50;37.80;;;;;;5035311;28;20207;-88
2022/08/01 07:12:01;;;;;;;6.05;3.13;;;22.40;37.30;;;;;;5031217;28;20253;-86
2022/08/01 07:14:29;;;;;;;5.45;3.03;;;22.40;39.40;;;;;;5031787;28;20650;-86
2022/08/01 07:16:56;;;;;;;3.45;2.95;;;22.50;38.50;;;;;;5031104;28;20223;-89
2022/08/01 07:19:23;;;;;;;5.38;3.20;;;22.60;38.30;;;;;;5028870;28;20596;-87
2022/08/01 07:21:49;;;;;;;3.75;2.78;;;22.70;36.60;;;;;;5030622;28;20395;-87
2022/08/01 07:24:16;;;;;;;31.42;22.08;;;22.70;37.40;;;;;;5030357;28;20293;-89
2022/08/01 07:26:50;;;;;;;4.05;3.38;;;22.70;37.70;;;;;;5030903;28;20210;-89
2022/08/01 07:29:24;;;;;;;3.97;2.83;;;22.80;37.10;;;;;;5029396;28;20206;-88
2022/08/01 07:31:52;;;;;;;3.80;2.85;;;22.90;35.40;;;;;;5029650;28;20226;-88
2022/08/01 07:34:19;;;;;;;3.90;3.10;;;23.00;35.70;;;;;;5032570;28;20606;-89
2022/08/01 07:36:46;;;;;;;3.40;3.10;;;23.10;38.00;;;;;;5032494;28;20590;-89
2022/08/01 07:39:13;;;;;;;4.47;3.40;;;23.20;34.80;;;;;;5033663;28;20202;-88
2022/08/01 07:41:40;;;;;;;3.30;3.00;;;23.20;34.80;;;;;;5033788;28;20221;-89
2022/08/01 07:44:11;;;;;;;3.38;2.90;;;23.20;34.80;;;;;;5031206;28;20202;-90
2022/08/01 07:46:38;;;;;;;3.40;3.10;;;23.30;34.90;;;;;;5030510;28;20195;-90
2022/08/01 07:49:05;;;;;;;3.75;3.35;;;23.20;34.80;;;;;;5028970;28;20210;-88
2022/08/01 07:51:32;;;;;;;4.70;3.25;;;23.30;36.20;;;;;;5033606;28;20204;-90
2022/08/01 07:53:58;;;;;;;3.65;3.05;;;23.20;34.80;;;;;;5032136;28;20210;-89
2022/08/01 07:56:27;;;;;;;5.22;3.33;;;23.40;34.90;;;;;;5038665;28;20229;-89
2022/08/01 07:58:54;;;;;;;3.88;3.17;;;23.40;34.80;;;;;;5030076;28;20677;-90
2022/08/01 08:01:22;;;;;;;4.00;3.10;;;23.40;34.90;;;;;;5024936;28;20225;-89
2022/08/01 08:03:49;;;;;;;4.38;2.90;;;23.50;35.10;;;;;;5029535;28;20210;-90
2022/08/01 08:06:16;;;;;;;4.03;3.40;;;23.50;35.00;;;;;;5030438;28;20226;-90
2022/08/01 08:08:43;;;;;;;6.50;3.03;;;23.60;35.10;;;;;;5032507;28;20214;-89
2022/08/01 08:11:10;;;;;;;3.22;2.92;;;23.60;35.10;;;;;;5027531;28;20202;-90
2022/08/01 08:13:37;;;;;;;5.47;2.97;;;23.70;35.10;;;;;;5030764;28;20205;-89
2022/08/01 08:16:04;;;;;;;4.65;2.80;;;23.80;32.80;;;;;;5028627;28;20207;-90
2022/08/01 08:18:33;;;;;;;3.72;2.80;;;23.80;35.20;;;;;;5033510;28;20211;-89
2022/08/01 08:20:59;;;;;;;5.47;3.17;;;23.90;35.30;;;;;;5032442;28;20214;-89
2022/08/01 08:26:11;;;;;;;3.22;2.83;;;24.00;33.10;;;;;;5031024;28;20228;-89
2022/08/01 08:28:37;;;;;;;7.15;2.90;;;24.00;33.40;;;;;;5034244;28;20290;-89
2022/08/01 08:31:04;;;;;;;4.53;3.10;;;24.10;31.70;;;;;;5031801;28;20556;-89
2022/08/01 08:33:33;;;;;;;6.18;3.10;;;24.10;33.80;;;;;;5035561;28;20308;-89
2022/08/01 08:36:00;;;;;;;7.03;2.80;;;24.20;32.50;;;;;;5031006;28;20615;-89
2022/08/01 08:38:27;;;;;;;3.08;2.78;;;24.30;32.70;;;;;;5031362;28;20198;-89
2022/08/01 08:40:54;;;;;;;4.70;3.13;;;24.40;32.50;;;;;;5038588;28;20639;-89
2022/08/01 08:43:22;;;;;;;3.15;2.85;;;24.50;31.90;;;;;;5028713;28;20215;-90
2022/08/01 08:45:49;;;;;;;6.70;3.10;;;24.50;30.40;;;;;;5036884;28;20705;-89
2022/08/01 08:48:17;;;;;;;7.82;3.30;;;24.60;30.60;;;;;;5026865;28;20719;-90
2022/08/01 08:50:48;;;;;;;4.63;2.88;;;24.70;30.90;;;;;;5028303;28;20214;-87
2022/08/01 08:53:17;;;;;;;3.30;3.00;;;25.00;29.00;;;;;;5036446;28;20233;-86
2022/08/01 08:55:44;;;;;;;5.38;3.00;;;25.60;28.30;;;;;;5035795;28;20213;-88
2022/08/01 08:58:14;;;;;;;3.63;2.90;;;26.90;23.40;;;;;;5035924;28;20209;-88
2022/08/01 09:00:41;;;;;;;4.75;3.10;;;28.80;19.90;;;;;;5036158;28;20261;-89
2022/08/01 09:03:08;;;;;;;3.28;2.97;;;30.60;16.90;;;;;;5033449;28;20205;-89
2022/08/01 09:05:35;;;;;;;3.10;2.90;;;32.40;13.30;;;;;;5039034;28;20225;-89
2022/08/01 09:08:07;;;;;;;4.88;3.25;;;33.80;11.00;;;;;;5033531;28;20680;-90
2022/08/01 09:10:34;;;;;;;4.10;3.00;;;34.90;7.90;;;;;;5035767;28;20210;-90
2022/08/01 09:13:10;;;;;;;4.57;3.30;;;34.40;8.70;;;;;;5037354;28;20206;-90
2022/08/01 09:15:42;;;;;;;3.40;3.10;;;34.90;8.00;;;;;;5041313;28;20225;-90
2022/08/01 09:18:09;;;;;;;3.72;3.42;;;34.70;8.90;;;;;;5033163;28;20217;-90
2022/08/01 09:20:41;;;;;;;4.22;3.20;;;34.80;8.20;;;;;;5036553;28;20240;-90
2022/08/01 09:23:32;;;;;;;4.10;3.70;;;35.00;8.50;;;;;;5033834;28;20214;-90
2022/08/01 09:25:59;;;;;;;3.78;3.55;;;36.40;6.00;;;;;;5034166;28;20267;-90
2022/08/01 09:28:29;;;;;;;7.07;3.90;;;36.90;4.60;;;;;;5036050;28;20221;-90
2022/08/01 09:30:57;;;;;;;4.13;3.83;;;36.00;5.70;;;;;;5035406;28;20559;-90
2022/08/01 09:33:24;;;;;;;3.92;3.63;;;35.70;6.60;;;;;;5038237;28;20218;-91
2022/08/01 09:35:56;;;;;;;4.10;3.80;;;35.10;6.50;;;;;;5032715;28;20216;-90
2022/08/01 09:38:26;;;;;;;4.22;3.92;;;34.50;7.60;;;;;;5034779;28;20583;-90
2022/08/01 09:40:55;;;;;;;3.97;3.60;;;34.80;7.40;;;;;;5034761;28;20217;-91
2022/08/01 09:43:24;;;;;;;4.20;3.90;;;35.50;6.50;;;;;;5034064;28;20198;-91
2022/08/01 09:45:51;;;;;;;4.13;3.83;;;35.30;6.90;;;;;;5034892;28;20225;-90
2022/08/01 09:48:19;;;;;;;4.32;3.92;;;35.20;6.80;;;;;;5036019;28;20662;-91
2022/08/01 09:50:47;;;;;;;4.65;4.20;;;35.60;7.30;;;;;;5033149;28;20210;-91
2022/08/01 09:53:14;;;;;;;5.07;4.03;;;35.50;6.90;;;;;;5035042;28;20206;-91
2022/08/01 09:55:44;;;;;;;4.40;4.00;;;35.40;7.80;;;;;;5037936;28;20227;-91
2022/08/01 09:58:11;;;;;;;4.60;4.20;;;36.00;4.70;;;;;;5034149;28;20629;-91
2022/08/01 10:00:40;;;;;;;4.40;4.00;;;36.30;5.50;;;;;;5036791;28;20206;-91
2022/08/01 10:03:21;;;;;;;4.53;4.07;;;36.00;5.90;;;;;;5035296;28;20209;-91
2022/08/01 10:05:48;;;;;;;4.40;4.05;;;35.20;6.80;;;;;;5037482;28;20229;-90
2022/08/01 10:08:16;;;;;;;4.57;4.20;;;35.40;7.30;;;;;;5036655;28;20209;-91
2022/08/01 10:11:07;;;;;;;4.53;4.00;;;35.10;6.50;;;;;;5033877;28;20206;-91
2022/08/01 10:13:34;;;;;;;5.53;3.95;;;34.90;6.40;;;;;;5034020;28;20206;-90
2022/08/01 10:16:02;;;;;;;4.15;3.95;;;34.60;6.60;;;;;;5034151;28;20202;-91
2022/08/01 10:18:31;;;;;;;4.32;4.00;;;35.90;5.80;;;;;;5034237;28;20208;-91
2022/08/01 10:20:59;;;;;;;4.30;3.90;;;35.40;6.90;;;;;;5033819;28;20214;-90
2022/08/01 10:23:28;;;;;;;4.07;3.72;;;34.60;7.10;;;;;;5035139;28;20221;-91
2022/08/01 10:25:58;;;;;;;4.80;4.25;;;34.40;9.20;;;;;;5035794;28;20230;-91
2022/08/01 10:28:26;;;;;;;4.35;3.95;;;35.10;6.90;;;;;;5033015;28;20594;-90
2022/08/01 10:30:53;;;;;;;4.00;3.70;;;35.90;7.60;;;;;;5033359;28;20217;-91
2022/08/01 10:33:23;;;;;;;4.63;3.85;;;35.10;6.30;;;;;;5025185;28;20223;-90
2022/08/01 10:35:51;;;;;;;3.80;3.50;;;34.00;9.30;;;;;;5037203;28;20571;-90
2022/08/01 10:38:19;;;;;;;3.97;3.10;;;33.70;10.50;;;;;;5039167;28;20214;-90
2022/08/01 10:40:46;;;;;;;3.25;3.05;;;33.10;10.50;;;;;;5040951;28;20257;-90
2022/08/01 10:43:18;;;;;;;4.05;3.08;;;33.00;10.10;;;;;;5040646;28;20297;-91
2022/08/01 10:45:45;;;;;;;3.13;2.90;;;33.30;10.00;;;;;;5037189;28;20226;-90
2022/08/01 10:48:19;;;;;;;3.00;2.78;;;33.90;8.50;;;;;;5033507;28;20210;-90
2022/08/01 10:50:49;;;;;;;3.45;2.88;;;33.60;7.90;;;;;;5033951;28;20214;-90
2022/08/01 10:53:19;;;;;;;3.97;2.63;;;33.10;10.60;;;;;;5027022;28;20214;-90
2022/08/01 10:55:52;;;;;;;3.05;2.60;;;32.60;11.10;;;;;;5033079;28;20703;-89
2022/08/01 10:58:26;;;;;;;3.90;2.75;;;32.90;12.30;;;;;;5030002;28;20203;-90
2022/08/01 11:01:31;;;;;;;4.10;2.85;;;32.50;10.30;;;;;;5028750;28;20703;-89
2022/08/01 11:04:08;;;;;;;2.80;2.50;;;31.70;12.30;;;;;;5025005;28;20527;-88
2022/08/01 11:07:02;;;;;;;3.80;2.78;;;31.60;13.20;;;;;;5027009;28;20234;-89
2022/08/01 11:09:31;;;;;;;2.80;2.35;;;32.40;11.60;;;;;;5031376;28;20268;-89
2022/08/01 11:12:05;;;;;;;3.88;2.83;;;32.30;12.80;;;;;;5031439;28;20744;-89
2022/08/01 11:15:15;;;;;;;4.10;2.47;;;32.40;10.90;;;;;;5035621;28;20679;-90
2022/08/01 11:17:47;;;;;;;3.65;2.20;;;32.20;11.50;;;;;;5032336;28;20240;-90
2022/08/01 11:20:16;;;;;;;2.45;2.25;;;31.60;12.90;;;;;;5029974;28;20203;-89
2022/08/01 11:23:27;;;;;;;2.40;2.20;;;31.60;12.30;;;;;;5029594;28;20573;-89
2022/08/01 11:26:17;;;;;;;3.75;2.35;;;31.20;12.50;;;;;;5029474;28;20225;-89
2022/08/01 11:28:47;;;;;;;2.53;2.10;;;30.40;14.20;;;;;;5026176;28;20202;-89
2022/08/01 11:31:29;;;;;;;2.22;2.03;;;30.20;14.60;;;;;;5041195;28;20211;-88
2022/08/01 11:33:56;;;;;;;2.65;2.10;;;30.30;13.60;;;;;;5037292;28;20606;-90
2022/08/01 11:36:23;;;;;;;3.28;2.65;;;29.80;14.20;;;;;;5032497;28;20206;-89
2022/08/01 11:39:16;;;;;;;4.53;2.50;;;29.50;14.40;;;;;;5032459;28;20292;-89
2022/08/01 11:41:45;;;;;;;3.83;2.20;;;29.40;15.60;;;;;;5035346;28;20210;-90
2022/08/01 11:44:15;;;;;;;2.75;2.20;;;29.50;16.40;;;;;;5042232;28;20205;-90
2022/08/01 11:46:55;;;;;;;3.28;2.10;;;29.60;17.30;;;;;;5028045;28;20230;-89
2022/08/01 11:49:26;;;;;;;2.55;2.25;;;29.90;15.10;;;;;;5027012;28;20216;-89
2022/08/01 11:52:13;;;;;;;2.20;2.00;;;30.10;14.60;;;;;;5027435;28;20214;-89
2022/08/01 11:54:42;;;;;;;2.35;2.17;;;30.30;14.70;;;;;;5032300;28;20241;-89
2022/08/01 11:57:11;;;;;;;2.63;2.42;;;30.20;15.70;;;;;;5026867;28;20202;-89
2022/08/01 11:59:40;;;;;;;5.10;2.10;;;30.30;14.10;;;;;;5030596;28;20612;-89
2022/08/01 12:02:21;;;;;;;2.47;2.17;;;30.30;14.20;;;;;;5031513;28;20210;-89
2022/08/01 12:04:57;;;;;;;8.07;2.13;;;30.60;13.30;;;;;;5034617;28;20608;-86
2022/08/01 12:07:25;;;;;;;3.95;2.33;;;30.90;12.50;;;;;;5030307;28;20221;-89
2022/08/01 12:10:01;;;;;;;2.50;2.30;;;31.20;12.30;;;;;;5031060;28;20209;-89
2022/08/01 12:12:29;;;;;;;3.13;2.10;;;31.00;11.30;;;;;;5030677;28;20208;-89
2022/08/01 12:14:58;;;;;;;2.42;2.20;;;30.80;12.60;;;;;;5028937;28;20611;-89
2022/08/01 12:17:35;;;;;;;4.50;2.03;;;30.30;12.00;;;;;;5031621;28;20205;-89
2022/08/01 12:20:04;;;;;;;5.45;2.58;;;30.10;13.70;;;;;;5035191;28;20198;-89
2022/08/01 12:22:31;;;;;;;2.13;1.95;;;30.10;13.10;;;;;;5040309;28;20208;-91
2022/08/01 12:25:06;;;;;;;2.88;2.00;;;30.10;13.50;;;;;;5037071;28;20243;-88
2022/08/01 12:27:33;;;;;;;2.35;1.83;;;30.30;12.70;;;;;;5049739;28;20220;-88
2022/08/01 12:30:00;;;;;;;2.80;1.90;;;30.30;11.20;;;;;;5041316;28;20214;-88
2022/08/01 12:32:30;;;;;;;2.00;1.80;;;30.30;11.70;;;;;;5039552;28;20253;-88
2022/08/01 12:35:02;;;;;;;3.05;1.90;;;30.50;11.90;;;;;;5033884;28;20198;-88
2022/08/01 12:37:29;;;;;;;2.83;1.90;;;30.40;12.00;;;;;;5041353;28;20216;-88
2022/08/01 12:39:57;;;;;;;3.20;1.90;;;30.50;13.10;;;;;;5038085;28;20206;-88
2022/08/01 12:42:25;;;;;;;3.30;1.90;;;30.50;12.40;;;;;;5023729;28;20203;-88
2022/08/01 12:44:53;;;;;;;3.20;1.90;;;30.50;10.70;;;;;;5035436;28;20202;-88
2022/08/01 12:47:21;;;;;;;2.25;1.60;;;30.30;10.90;;;;;;5038179;28;20865;-88
2022/08/01 12:49:49;;;;;;;2.30;1.70;;;30.10;11.60;;;;;;5038169;28;20210;-88
2022/08/01 12:52:22;;;;;;;3.20;1.80;;;30.10;10.70;;;;;;5038073;28;20229;-88
2022/08/01 12:55:08;;;;;;;2.10;1.90;;;29.80;12.20;;;;;;5040006;28;20252;-88
2022/08/01 12:57:36;;;;;;;3.80;1.73;;;29.50;12.90;;;;;;5036874;28;20213;-88
2022/08/01 13:00:08;;;;;;;2.92;1.60;;;29.60;13.40;;;;;;5039166;28;20210;-87
2022/08/01 13:02:36;;;;;;;3.50;1.85;;;29.50;12.90;;;;;;5034471;28;20202;-86
2022/08/01 13:05:06;;;;;;;2.85;1.83;;;29.70;11.60;;;;;;5031964;28;20229;-88
2022/08/01 13:07:40;;;;;;;2.10;1.73;;;29.70;12.20;;;;;;5032049;28;20599;-88
2022/08/01 13:10:09;;;;;;;2.17;1.60;;;30.10;11.00;;;;;;5030219;28;20619;-89
2022/08/01 13:12:35;;;;;;;2.42;2.22;;;30.00;11.60;;;;;;5028209;28;20302;-86